createdAt,value
2023-05-11T00:00:27.277Z,63.33
2023-05-11T00:02:55.113Z,63.46
2023-05-11T00:05:23.420Z,63.45
2023-05-11T00:07:51.191Z,63.44
2023-05-11T00:10:19.308Z,63.29
2023-05-11T00:12:47.693Z,63.35
2023-05-11T00:15:16.900Z,63.33
2023-05-11T00:17:45.373Z,63.25
2023-05-11T00:20:13.850Z,63.33
2023-05-11T00:22:44.118Z,63.47
2023-05-11T00:25:12.788Z,63.63
2023-05-11T00:27:46.348Z,63.73
2023-05-11T00:30:16.663Z,63.74
2023-05-11T00:32:45.349Z,63.71
2023-05-11T00:35:13.962Z,63.43
2023-05-11T00:37:41.805Z,63.50
2023-05-11T00:40:10.348Z,63.59
2023-05-11T00:42:38.641Z,63.32
2023-05-11T00:45:07.841Z,63.61
2023-05-11T00:47:37.536Z,63.24
2023-05-11T00:50:06.507Z,63.40
2023-05-11T00:52:34.269Z,63.38
2023-05-11T00:55:02.329Z,63.37
2023-05-11T00:57:32.152Z,63.41
2023-05-11T01:00:02.557Z,63.27
2023-05-11T01:02:31.031Z,63.14
2023-05-11T01:05:01.900Z,63.09
2023-05-11T01:07:38.157Z,62.82
2023-05-11T01:10:16.405Z,63.47
2023-05-11T01:12:54.255Z,63.14
2023-05-11T01:15:29.791Z,63.36
2023-05-11T01:18:04.223Z,63.28
2023-05-11T01:20:33.883Z,63.27
2023-05-11T01:23:22.837Z,63.51
2023-05-11T01:26:05.810Z,63.31
2023-05-11T01:28:53.948Z,63.50
2023-05-11T01:31:24.538Z,63.74
2023-05-11T01:33:56.456Z,63.46
2023-05-11T01:36:30.019Z,63.87
2023-05-11T01:39:01.966Z,64.09
2023-05-11T01:41:33.642Z,64.03
2023-05-11T01:44:06.502Z,64.25
2023-05-11T01:46:36.833Z,64.29
2023-05-11T01:49:08.177Z,64.29
2023-05-11T01:51:39.094Z,64.44
2023-05-11T01:54:09.523Z,64.47
2023-05-11T01:56:39.943Z,64.69
2023-05-11T01:59:08.308Z,64.44
2023-05-11T02:01:38.193Z,64.52
2023-05-11T02:04:07.279Z,64.45
2023-05-11T02:06:37.936Z,64.59
2023-05-11T02:09:09.004Z,64.42
2023-05-11T02:11:38.942Z,64.04
2023-05-11T02:14:08.306Z,64.18
2023-05-11T02:16:39.696Z,64.18
2023-05-11T02:19:08.724Z,64.29
2023-05-11T02:21:38.230Z,64.31
2023-05-11T02:24:08.417Z,64.44
2023-05-11T02:26:36.339Z,64.18
2023-05-11T02:29:04.386Z,64.41
2023-05-11T02:31:37.453Z,64.52
2023-05-11T02:34:14.885Z,64.14
2023-05-11T02:36:44.998Z,64.05
2023-05-11T02:39:15.464Z,64.12
2023-05-11T02:41:46.476Z,64.71
2023-05-11T02:44:18.620Z,64.22
2023-05-11T02:46:50.409Z,64.06
2023-05-11T02:49:23.562Z,64.05
2023-05-11T02:51:54.659Z,64.01
2023-05-11T02:54:25.047Z,64.34
2023-05-11T02:56:52.941Z,64.34
2023-05-11T02:59:21.882Z,63.92
2023-05-11T03:01:50.204Z,63.98
2023-05-11T03:04:19.526Z,64.06
2023-05-11T03:06:48.437Z,63.68
2023-05-11T03:09:16.232Z,63.76
2023-05-11T03:11:44.952Z,63.60
2023-05-11T03:14:13.660Z,63.80
2023-05-11T03:16:42.773Z,63.57
2023-05-11T03:19:11.316Z,63.44
2023-05-11T03:21:41.099Z,63.66
2023-05-11T03:24:09.589Z,64.28
2023-05-11T03:26:37.879Z,63.92
2023-05-11T03:29:08.515Z,64.24
2023-05-11T03:31:36.441Z,64.36
2023-05-11T03:34:04.374Z,63.69
2023-05-11T03:36:34.060Z,63.83
2023-05-11T03:39:03.206Z,63.97
2023-05-11T03:41:33.419Z,63.85
2023-05-11T03:44:03.277Z,63.93
2023-05-11T03:46:35.819Z,64.08
2023-05-11T03:49:06.381Z,64.07
2023-05-11T03:51:36.352Z,64.15
2023-05-11T03:54:08.197Z,64.58
2023-05-11T03:56:37.124Z,64.25
2023-05-11T03:59:05.243Z,64.32
2023-05-11T04:01:34.188Z,64.04
2023-05-11T04:04:02.028Z,63.91
2023-05-11T04:06:29.883Z,64.17
2023-05-11T04:08:58.354Z,64.22
2023-05-11T04:11:29.956Z,64.23
2023-05-11T04:13:58.250Z,64.29
2023-05-11T04:16:26.093Z,64.51
2023-05-11T04:18:53.902Z,64.45
2023-05-11T04:21:22.422Z,64.66
2023-05-11T04:23:50.181Z,64.65
2023-05-11T04:26:17.945Z,64.81
2023-05-11T04:28:47.637Z,64.45
2023-05-11T04:31:15.203Z,64.40
2023-05-11T04:33:43.013Z,64.51
2023-05-11T04:36:11.657Z,64.37
2023-05-11T04:38:39.514Z,64.33
2023-05-11T04:41:08.342Z,64.53
2023-05-11T04:43:36.614Z,64.33
2023-05-11T04:46:05.828Z,64.32
2023-05-11T04:48:33.611Z,64.18
2023-05-11T04:51:05.565Z,64.19
2023-05-11T04:53:33.390Z,64.52
2023-05-11T04:56:01.160Z,64.20
2023-05-11T04:58:29.379Z,64.30
2023-05-11T05:00:57.176Z,64.17
2023-05-11T05:03:26.352Z,64.46
2023-05-11T05:05:54.656Z,65.37
2023-05-11T05:08:22.593Z,66.04
2023-05-11T05:10:50.493Z,64.89
2023-05-11T05:13:18.762Z,64.60
2023-05-11T05:15:46.558Z,64.26
2023-05-11T05:18:14.428Z,64.09
2023-05-11T05:20:44.165Z,63.86
2023-05-11T05:23:11.733Z,64.04
2023-05-11T05:25:39.529Z,63.47
2023-05-11T05:28:07.912Z,63.35
2023-05-11T05:30:37.100Z,63.82
2023-05-11T05:33:05.150Z,63.97
2023-05-11T05:35:33.481Z,63.96
2023-05-11T05:38:02.625Z,64.01
2023-05-11T05:40:30.485Z,64.10
2023-05-11T05:42:58.918Z,63.94
2023-05-11T05:45:26.694Z,64.49
2023-05-11T05:47:54.562Z,64.21
2023-05-11T05:50:22.921Z,64.49
2023-05-11T05:52:50.717Z,64.33
2023-05-11T05:55:20.096Z,63.80
2023-05-11T05:57:48.122Z,63.93
2023-05-11T06:00:17.451Z,63.80
2023-05-11T06:02:45.537Z,64.21
2023-05-11T06:05:13.838Z,64.08
2023-05-11T06:07:41.637Z,63.91
2023-05-11T06:10:09.413Z,63.90
2023-05-11T06:12:39.174Z,64.06
2023-05-11T06:15:08.081Z,64.21
2023-05-11T06:17:35.866Z,64.61
2023-05-11T06:20:03.964Z,63.89
2023-05-11T06:22:31.712Z,64.00
2023-05-11T06:24:59.452Z,64.30
2023-05-11T06:27:27.242Z,63.91
2023-05-11T06:29:57.567Z,62.77
2023-05-11T06:32:25.463Z,62.88
2023-05-11T06:34:55.586Z,62.99
2023-05-11T06:37:23.381Z,62.54
2023-05-11T06:39:51.134Z,62.81
2023-05-11T06:42:19.447Z,62.92
2023-05-11T06:44:47.242Z,62.13
2023-05-11T06:47:16.406Z,62.85
2023-05-11T06:49:44.952Z,62.35
2023-05-11T06:52:12.765Z,61.73
2023-05-11T06:54:40.521Z,61.33
2023-05-11T06:57:08.650Z,61.32
2023-05-11T06:59:36.444Z,61.10
2023-05-11T07:02:04.224Z,61.74
2023-05-11T07:04:34.059Z,61.18
2023-05-11T07:07:01.917Z,61.40
2023-05-11T07:09:29.746Z,61.56
2023-05-11T07:11:58.330Z,61.48
2023-05-11T07:14:26.134Z,61.62
2023-05-11T07:16:53.936Z,61.64
2023-05-11T07:19:22.175Z,61.99
2023-05-11T07:21:52.257Z,61.43
2023-05-11T07:24:20.050Z,60.93
2023-05-11T07:26:49.122Z,60.83
2023-05-11T07:29:16.897Z,60.60
2023-05-11T07:31:44.744Z,61.03
2023-05-11T07:34:13.200Z,60.61
2023-05-11T07:36:40.992Z,60.47
2023-05-11T07:39:10.749Z,60.56
2023-05-11T07:41:38.910Z,59.77
2023-05-11T07:44:07.005Z,60.01
2023-05-11T07:46:34.831Z,59.03
2023-05-11T07:49:14.381Z,59.36
2023-05-11T07:51:45.239Z,59.21
2023-05-11T07:54:14.827Z,59.98
2023-05-11T07:56:42.965Z,60.46
2023-05-11T07:59:10.882Z,59.05
2023-05-11T08:01:39.073Z,58.99
2023-05-11T08:04:07.045Z,58.23
2023-05-11T08:06:34.880Z,58.18
2023-05-11T08:09:03.566Z,58.33
2023-05-11T08:11:32.912Z,58.00
2023-05-11T08:14:00.903Z,58.60
2023-05-11T08:16:29.177Z,58.02
2023-05-11T08:18:57.167Z,57.66
2023-05-11T08:21:25.209Z,57.07
2023-05-11T08:23:53.346Z,57.29
2023-05-11T08:26:21.479Z,56.79
2023-05-11T08:28:52.106Z,56.39
2023-05-11T08:31:20.449Z,56.50
2023-05-11T08:33:48.344Z,56.62
2023-05-11T08:36:16.315Z,56.13
2023-05-11T08:38:45.164Z,56.93
2023-05-11T08:41:13.547Z,58.26
2023-05-11T08:43:42.174Z,57.59
2023-05-11T08:46:12.935Z,56.55
2023-05-11T08:48:42.490Z,56.01
2023-05-11T08:51:10.420Z,57.46
2023-05-11T08:53:39.152Z,55.82
2023-05-11T08:56:09.519Z,55.43
2023-05-11T08:58:37.910Z,55.41
2023-05-11T09:01:07.711Z,55.51
2023-05-11T09:03:38.389Z,55.26
2023-05-11T09:06:08.771Z,55.02
2023-05-11T09:08:38.369Z,54.83
2023-05-11T09:11:09.072Z,55.54
2023-05-11T09:13:37.532Z,55.02
2023-05-11T09:16:11.307Z,54.70
2023-05-11T09:18:49.494Z,55.17
2023-05-11T09:21:17.645Z,54.87
2023-05-11T09:23:45.690Z,55.75
2023-05-11T09:26:17.292Z,55.14
2023-05-11T09:29:02.514Z,54.71
2023-05-11T09:31:39.961Z,54.72
2023-05-11T09:34:17.056Z,54.63
2023-05-11T09:36:46.451Z,54.09
2023-05-11T09:39:16.814Z,54.64
2023-05-11T09:41:45.396Z,54.31
2023-05-11T09:44:14.707Z,53.77
2023-05-11T09:46:43.434Z,53.88
2023-05-11T09:49:12.139Z,53.84
2023-05-11T09:51:42.253Z,53.67
2023-05-11T09:54:20.118Z,53.14
2023-05-11T09:56:50.480Z,53.33
2023-05-11T09:59:19.235Z,52.66
2023-05-11T10:01:47.124Z,53.51
2023-05-11T10:06:52.991Z,53.64
2023-05-11T10:09:26.060Z,52.94
2023-05-11T10:11:55.957Z,52.50
2023-05-11T10:14:24.691Z,52.92
2023-05-11T10:16:53.972Z,52.55
2023-05-11T10:19:22.324Z,53.01
2023-05-11T10:21:53.078Z,52.02
2023-05-11T10:24:21.391Z,52.18
2023-05-11T10:26:49.711Z,51.47
2023-05-11T10:29:20.576Z,52.00
2023-05-11T10:31:51.300Z,52.00
2023-05-11T10:34:19.960Z,51.09
2023-05-11T10:36:48.984Z,53.50
2023-05-11T10:39:18.850Z,52.36
2023-05-11T10:42:00.235Z,52.41
2023-05-11T10:44:52.355Z,52.11
2023-05-11T10:47:50.742Z,52.33
2023-05-11T10:50:35.048Z,51.58
2023-05-11T10:53:19.205Z,52.02
2023-05-11T10:56:06.487Z,50.55
2023-05-11T10:58:50.748Z,51.30
2023-05-11T11:01:38.224Z,50.91
2023-05-11T11:04:07.463Z,49.38
2023-05-11T11:06:36.656Z,49.83
2023-05-11T11:09:06.776Z,50.51
2023-05-11T11:11:39.103Z,49.82
2023-05-11T11:14:09.741Z,48.54
2023-05-11T11:16:38.899Z,48.59
2023-05-11T11:19:37.174Z,49.16
2023-05-11T11:22:05.314Z,48.41
2023-05-11T11:24:47.283Z,48.07
2023-05-11T11:27:16.706Z,47.43
2023-05-11T11:30:18.353Z,45.27
2023-05-11T11:32:47.270Z,45.86
2023-05-11T11:35:47.256Z,46.80
2023-05-11T11:38:16.843Z,46.42
2023-05-11T11:43:19.995Z,46.00
2023-05-11T11:45:55.291Z,46.51
2023-05-11T11:48:29.974Z,47.94
2023-05-11T11:51:05.991Z,47.53
2023-05-11T11:54:07.713Z,48.44
2023-05-11T11:56:43.627Z,47.67
2023-05-11T11:59:16.850Z,48.19
2023-05-11T12:01:46.319Z,47.64
2023-05-11T12:04:25.893Z,47.68
2023-05-11T12:06:57.323Z,48.49
2023-05-11T12:09:25.413Z,46.97
2023-05-11T12:11:55.043Z,47.77
2023-05-11T12:14:24.860Z,46.79
2023-05-11T12:17:03.749Z,47.87
2023-05-11T12:19:31.964Z,46.33
2023-05-11T12:21:59.862Z,45.78
2023-05-11T12:24:28.028Z,45.68
2023-05-11T12:26:59.304Z,46.64
2023-05-11T12:29:29.166Z,46.02
2023-05-11T12:31:57.057Z,46.89
2023-05-11T12:34:24.875Z,46.40
2023-05-11T12:36:57.135Z,45.43
2023-05-11T12:39:28.703Z,45.63
2023-05-11T12:41:57.647Z,46.18
2023-05-11T12:44:28.247Z,45.86
2023-05-11T12:46:56.215Z,46.38
2023-05-11T12:49:27.288Z,45.51
2023-05-11T12:52:02.916Z,46.27
2023-05-11T12:54:33.692Z,45.72
2023-05-11T12:57:03.262Z,45.33
2023-05-11T12:59:33.728Z,46.36
2023-05-11T13:02:12.751Z,46.16
2023-05-11T13:04:42.698Z,45.15
2023-05-11T13:07:11.179Z,45.15
2023-05-11T13:09:39.606Z,44.91
2023-05-11T13:12:18.355Z,45.31
2023-05-11T13:14:49.221Z,44.54
2023-05-11T13:17:31.363Z,45.67
2023-05-11T13:20:16.686Z,45.24
2023-05-11T13:22:45.056Z,45.13
2023-05-11T13:25:12.892Z,45.25
2023-05-11T13:27:40.676Z,45.99
2023-05-11T13:30:11.579Z,47.04
2023-05-11T13:32:39.686Z,47.22
2023-05-11T13:35:08.253Z,48.11
2023-05-11T13:37:36.528Z,47.87
2023-05-11T13:40:04.889Z,48.16
2023-05-11T13:42:33.194Z,48.45
2023-05-11T13:45:01.208Z,49.00
2023-05-11T13:47:31.155Z,49.21
2023-05-11T13:49:59.029Z,49.57
2023-05-11T13:52:27.102Z,49.17
2023-05-11T13:54:54.918Z,49.44
2023-05-11T13:57:22.823Z,49.86
2023-05-11T13:59:51.633Z,50.48
2023-05-11T14:02:19.558Z,51.13
2023-05-11T14:04:48.817Z,51.17
2023-05-11T14:07:17.137Z,51.59
2023-05-11T14:09:47.642Z,51.87
2023-05-11T14:12:15.516Z,52.04
2023-05-11T14:14:43.481Z,51.64
2023-05-11T14:17:11.857Z,51.71
2023-05-11T14:19:39.805Z,51.52
2023-05-11T14:22:09.072Z,51.37
2023-05-11T14:24:36.990Z,51.36
2023-05-11T14:27:05.123Z,51.67
2023-05-11T14:29:33.463Z,52.04
2023-05-11T14:32:01.259Z,52.51
2023-05-11T14:34:29.022Z,53.08
2023-05-11T14:36:57.916Z,53.48
2023-05-11T14:39:27.038Z,53.90
2023-05-11T14:41:55.028Z,54.32
2023-05-11T14:44:24.708Z,54.30
2023-05-11T14:46:52.649Z,54.82
2023-05-11T14:49:20.529Z,55.02
2023-05-11T14:51:48.534Z,55.37
2023-05-11T14:54:16.350Z,55.88
2023-05-11T14:56:51.414Z,55.42
2023-05-11T14:59:19.284Z,55.61
2023-05-11T15:01:47.177Z,56.27
2023-05-11T15:04:16.838Z,56.02
2023-05-11T15:06:44.838Z,56.04
2023-05-11T15:09:12.634Z,56.60
2023-05-11T15:11:41.075Z,55.73
2023-05-11T15:14:10.688Z,56.06
2023-05-11T15:16:38.671Z,56.28
2023-05-11T15:19:07.885Z,56.02
2023-05-11T15:21:36.159Z,56.58
2023-05-11T15:24:04.440Z,56.90
2023-05-11T15:26:32.847Z,57.22
2023-05-11T15:29:00.635Z,57.74
2023-05-11T15:31:29.944Z,58.58
2023-05-11T15:33:58.114Z,56.80
2023-05-11T15:36:29.668Z,56.77
2023-05-11T15:38:58.766Z,56.87
2023-05-11T15:41:27.349Z,57.43
2023-05-11T15:43:55.488Z,57.23
2023-05-11T15:46:23.953Z,56.51
2023-05-11T15:48:53.175Z,56.62
2023-05-11T15:51:21.074Z,56.48
2023-05-11T15:53:48.887Z,56.16
2023-05-11T15:56:16.946Z,56.23
2023-05-11T15:58:44.882Z,56.45
2023-05-11T16:01:13.595Z,56.54
2023-05-11T16:03:41.453Z,55.54
2023-05-11T16:06:10.755Z,57.24
2023-05-11T16:08:39.069Z,56.64
2023-05-11T16:11:06.842Z,56.78
2023-05-11T16:13:34.635Z,56.83
2023-05-11T16:16:03.011Z,57.24
2023-05-11T16:18:30.857Z,57.65
2023-05-11T16:20:58.689Z,57.72
2023-05-11T16:23:28.809Z,57.40
2023-05-11T16:25:57.233Z,57.52
2023-05-11T16:28:25.035Z,57.98
2023-05-11T16:30:53.412Z,58.03
2023-05-11T16:33:21.173Z,58.64
2023-05-11T16:35:49.297Z,58.32
2023-05-11T16:38:18.527Z,58.63
2023-05-11T16:40:48.015Z,58.31
2023-05-11T16:43:16.693Z,58.78
2023-05-11T16:45:46.336Z,59.16
2023-05-11T16:48:13.906Z,57.77
2023-05-11T16:50:42.382Z,59.38
2023-05-11T16:53:10.816Z,59.40
2023-05-11T16:55:38.639Z,59.54
2023-05-11T16:58:07.845Z,59.73
2023-05-11T17:00:35.886Z,59.83
2023-05-11T17:03:03.942Z,59.10
2023-05-11T17:05:31.851Z,59.17
2023-05-11T17:08:00.025Z,58.85
2023-05-11T17:10:28.028Z,59.47
2023-05-11T17:12:56.806Z,59.27
2023-05-11T17:15:27.292Z,59.36
2023-05-11T17:17:55.287Z,58.92
2023-05-11T17:20:23.063Z,59.04
2023-05-11T17:22:51.338Z,59.68
2023-05-11T17:25:19.195Z,59.93
2023-05-11T17:27:47.477Z,60.10
2023-05-11T17:30:15.704Z,60.40
2023-05-11T17:32:45.452Z,60.87
2023-05-11T17:35:13.622Z,60.58
2023-05-11T17:37:41.779Z,60.37
2023-05-11T17:40:10.682Z,59.98
2023-05-11T17:42:38.726Z,60.30
2023-05-11T17:45:08.127Z,59.54
2023-05-11T17:47:35.935Z,59.67
2023-05-11T17:50:05.711Z,59.83
2023-05-11T17:52:33.846Z,59.95
2023-05-11T17:55:02.725Z,59.60
2023-05-11T17:57:30.535Z,59.60
2023-05-11T17:59:58.754Z,59.88
2023-05-11T18:02:26.626Z,59.05
2023-05-11T18:04:55.398Z,59.73
2023-05-11T18:07:24.546Z,59.31
2023-05-11T18:09:52.590Z,59.46
2023-05-11T18:12:20.684Z,59.07
2023-05-11T18:14:48.410Z,59.08
2023-05-11T18:17:16.588Z,58.78
2023-05-11T18:19:44.329Z,58.85
2023-05-11T18:22:12.835Z,59.21
2023-05-11T18:24:41.973Z,59.24
2023-05-11T18:27:10.077Z,59.09
2023-05-11T18:29:38.186Z,59.45
2023-05-11T18:32:06.444Z,59.26
2023-05-11T18:34:34.950Z,59.71
2023-05-11T18:37:03.276Z,60.11
2023-05-11T18:39:31.029Z,60.29
2023-05-11T18:42:02.992Z,60.21
2023-05-11T18:44:32.021Z,60.51
2023-05-11T18:47:00.279Z,60.58
2023-05-11T18:49:28.623Z,60.65
2023-05-11T18:51:56.938Z,60.46
2023-05-11T18:54:24.858Z,60.14
2023-05-11T18:56:53.243Z,60.44
2023-05-11T18:59:22.577Z,60.60
2023-05-11T19:01:50.404Z,60.75
2023-05-11T19:04:20.880Z,60.80
2023-05-11T19:06:49.202Z,60.90
2023-05-11T19:09:17.576Z,61.12
2023-05-11T19:11:45.628Z,61.34
2023-05-11T19:14:14.592Z,61.62
2023-05-11T19:16:44.462Z,61.60
2023-05-11T19:19:12.845Z,61.76
2023-05-11T19:21:42.400Z,61.52
2023-05-11T19:24:11.168Z,61.83
2023-05-11T19:26:39.261Z,62.41
2023-05-11T19:29:09.170Z,62.32
2023-05-11T19:31:37.142Z,62.49
2023-05-11T19:34:06.807Z,62.72
2023-05-11T19:36:34.416Z,62.75
2023-05-11T19:39:02.693Z,62.56
2023-05-11T19:41:30.472Z,62.78
2023-05-11T19:43:58.567Z,63.01
2023-05-11T19:46:27.050Z,62.98
2023-05-11T19:48:54.917Z,63.01
2023-05-11T19:51:24.129Z,63.22
2023-05-11T19:53:54.236Z,62.70
2023-05-11T19:56:22.152Z,62.67
2023-05-11T19:58:50.358Z,62.58
2023-05-11T20:01:18.785Z,62.54
2023-05-11T20:03:46.676Z,62.68
2023-05-11T20:06:14.559Z,62.58
2023-05-11T20:08:46.396Z,62.74
2023-05-11T20:11:15.712Z,62.83
2023-05-11T20:13:44.002Z,62.66
2023-05-11T20:16:12.520Z,62.52
2023-05-11T20:18:40.605Z,62.33
2023-05-11T20:21:08.474Z,62.22
2023-05-11T20:23:37.739Z,62.62
2023-05-11T20:26:06.979Z,62.63
2023-05-11T20:28:34.780Z,62.65
2023-05-11T20:31:02.879Z,62.45
2023-05-11T20:36:01.353Z,61.90
2023-05-11T20:38:29.540Z,62.10
2023-05-11T20:40:58.595Z,62.29
2023-05-11T20:43:27.921Z,61.93
2023-05-11T20:45:56.048Z,62.39
2023-05-11T20:48:36.159Z,61.68
2023-05-11T20:51:07.922Z,61.76
2023-05-11T20:53:35.732Z,61.62
2023-05-11T20:56:03.803Z,62.08
2023-05-11T20:58:33.164Z,61.68
2023-05-11T21:01:01.060Z,62.21
2023-05-11T21:03:28.876Z,62.13
2023-05-11T21:05:57.399Z,62.41
2023-05-11T21:08:25.198Z,62.12
2023-05-11T21:10:53.138Z,62.18
2023-05-11T21:13:21.248Z,62.29
2023-05-11T21:15:50.665Z,62.24
2023-05-11T21:18:18.749Z,61.65
2023-05-11T21:20:46.833Z,62.01
2023-05-11T21:23:15.244Z,61.90
2023-05-11T21:25:43.145Z,61.85
2023-05-11T21:28:11.515Z,62.33
2023-05-11T21:30:39.299Z,62.11
2023-05-11T21:33:08.594Z,62.32
2023-05-11T21:35:36.861Z,61.95
2023-05-11T21:38:04.745Z,62.16
2023-05-11T21:40:32.528Z,62.00
2023-05-11T21:43:00.858Z,62.23
2023-05-11T21:45:28.620Z,62.34
2023-05-11T21:47:58.559Z,62.36
2023-05-11T21:50:28.798Z,62.37
2023-05-11T21:52:56.691Z,62.22
2023-05-11T21:55:24.762Z,62.31
2023-05-11T21:57:52.997Z,62.41
2023-05-11T22:00:22.628Z,62.37
2023-05-11T22:02:51.154Z,62.66
2023-05-11T22:05:19.686Z,62.63
2023-05-11T22:07:48.881Z,62.64
2023-05-11T22:10:17.332Z,62.56
2023-05-11T22:12:45.764Z,62.59
2023-05-11T22:15:13.668Z,62.79
2023-05-11T22:17:41.518Z,62.72
2023-05-11T22:20:11.469Z,62.78
2023-05-11T22:22:39.670Z,63.09
2023-05-11T22:25:09.872Z,62.76
2023-05-11T22:27:38.210Z,62.49
2023-05-11T22:30:07.474Z,62.85
2023-05-11T22:32:36.120Z,62.62
2023-05-11T22:35:04.578Z,62.59
2023-05-11T22:37:32.690Z,62.66
2023-05-11T22:40:00.471Z,62.62
2023-05-11T22:42:31.253Z,62.58
2023-05-11T22:44:58.998Z,62.65
2023-05-11T22:47:27.769Z,62.61
2023-05-11T22:49:55.758Z,62.66
2023-05-11T22:52:23.566Z,62.50
2023-05-11T22:54:54.586Z,62.67
2023-05-11T22:57:24.617Z,62.61
2023-05-11T22:59:53.856Z,62.75
2023-05-11T23:02:22.944Z,62.86
2023-05-11T23:04:51.875Z,62.87
2023-05-11T23:07:20.229Z,63.01
2023-05-11T23:09:49.748Z,63.13
2023-05-11T23:12:18.295Z,62.88
2023-05-11T23:14:46.103Z,62.58
2023-05-11T23:17:15.649Z,63.08
2023-05-11T23:19:44.210Z,63.05
2023-05-11T23:22:12.109Z,63.09
2023-05-11T23:24:39.870Z,63.16
2023-05-11T23:27:08.288Z,63.30
2023-05-11T23:29:36.347Z,63.43
2023-05-11T23:32:04.517Z,63.44
2023-05-11T23:34:34.173Z,63.53
2023-05-11T23:37:01.720Z,63.07
2023-05-11T23:39:29.727Z,63.29
2023-05-11T23:41:58.001Z,63.43
2023-05-11T23:44:25.797Z,63.60
2023-05-11T23:46:53.595Z,63.31
2023-05-11T23:49:21.978Z,63.54
2023-05-11T23:51:51.121Z,63.51
2023-05-11T23:54:18.997Z,63.38
2023-05-11T23:56:47.312Z,63.62
2023-05-11T23:59:15.183Z,63.80
